<?xml version="1.0" encoding="UTF-8" standalone="no" ?>
<gpx xmlns="http://www.topografix.com/GPX/1/1" xmlns:xsi="http://www.w3.org/2001/XMLSchema-instance" xsi:schemaLocation="http://www.topografix.com/GPX/1/1 http://www.topografix.com/GPX/1/1/gpx.xsd" version="1.1" creator="VisuGPX - https://www.visugpx.com">
  <metadata>
    <name>initiation vol</name>
    <desc><![CDATA[vol au dessus du mans le 04 juin 2017 avec toutes la famille]]></desc>
  </metadata>
  <trk>
    <name><![CDATA[Track 179]]></name>
    <desc><![CDATA[4 juin 2017  5:56 pm]]></desc>
    <trkseg>
      <trkpt lat="47.9456" lon="0.19653">
        <ele>53.466</ele>
        <time>2017-06-04T15:56:32.007Z</time>
      </trkpt>
      <trkpt lat="47.9456" lon="0.19653">
        <ele>53.441</ele>
        <time>2017-06-04T15:56:35.999Z</time>
      </trkpt>
      <trkpt lat="47.9456" lon="0.19653">
        <ele>53.427</ele>
        <time>2017-06-04T15:57:37.145Z</time>
      </trkpt>
      <trkpt lat="47.94543" lon="0.19667">
        <ele>53.412</ele>
        <time>2017-06-04T15:57:51.257Z</time>
      </trkpt>
      <trkpt lat="47.94544" lon="0.19683">
        <ele>53.317</ele>
        <time>2017-06-04T15:57:55.180Z</time>
      </trkpt>
      <trkpt lat="47.94547" lon="0.19696">
        <ele>53.105</ele>
        <time>2017-06-04T15:57:58.029Z</time>
      </trkpt>
      <trkpt lat="47.94549" lon="0.19712">
        <ele>52.944</ele>
        <time>2017-06-04T15:58:00.941Z</time>
      </trkpt>
      <trkpt lat="47.94551" lon="0.19728">
        <ele>52.975</ele>
        <time>2017-06-04T15:58:03.703Z</time>
      </trkpt>
      <trkpt lat="47.94556" lon="0.19744">
        <ele>53.112</ele>
        <time>2017-06-04T15:58:06.356Z</time>
      </trkpt>
      <trkpt lat="47.94563" lon="0.19753">
        <ele>53.269</ele>
        <time>2017-06-04T15:58:08.271Z</time>
      </trkpt>
      <trkpt lat="47.94575" lon="0.19763">
        <ele>53.41</ele>
        <time>2017-06-04T15:58:10.918Z</time>
      </trkpt>
      <trkpt lat="47.94585" lon="0.19769">
        <ele>53.487</ele>
        <time>2017-06-04T15:58:12.904Z</time>
      </trkpt>
      <trkpt lat="47.946" lon="0.19775">
        <ele>53.46</ele>
        <time>2017-06-04T15:58:15.812Z</time>
      </trkpt>
      <trkpt lat="47.94611" lon="0.19783">
        <ele>53.35</ele>
        <time>2017-06-04T15:58:17.869Z</time>
      </trkpt>
      <trkpt lat="47.94621" lon="0.19791">
        <ele>53.23</ele>
        <time>2017-06-04T15:58:19.817Z</time>
      </trkpt>
      <trkpt lat="47.94638" lon="0.19802">
        <ele>53.13</ele>
        <time>2017-06-04T15:58:22.732Z</time>
      </trkpt>
      <trkpt lat="47.94649" lon="0.19805">
        <ele>53.043</ele>
        <time>2017-06-04T15:58:24.506Z</time>
      </trkpt>
      <trkpt lat="47.9466" lon="0.19812">
        <ele>53.066</ele>
        <time>2017-06-04T15:58:26.388Z</time>
      </trkpt>
      <trkpt lat="47.94671" lon="0.19821">
        <ele>53.282</ele>
        <time>2017-06-04T15:58:28.316Z</time>
      </trkpt>
      <trkpt lat="47.9469" lon="0.1983">
        <ele>53.611</ele>
        <time>2017-06-04T15:58:31.193Z</time>
      </trkpt>
      <trkpt lat="47.94709" lon="0.19842">
        <ele>53.88</ele>
        <time>2017-06-04T15:58:34.148Z</time>
      </trkpt>
      <trkpt lat="47.94722" lon="0.19849">
        <ele>53.998</ele>
        <time>2017-06-04T15:58:36.068Z</time>
      </trkpt>
      <trkpt lat="47.94735" lon="0.19858">
        <ele>53.975</ele>
        <time>2017-06-04T15:58:38.060Z</time>
      </trkpt>
      <trkpt lat="47.94749" lon="0.19864">
        <ele>53.879</ele>
        <time>2017-06-04T15:58:39.933Z</time>
      </trkpt>
      <trkpt lat="47.94769" lon="0.19878">
        <ele>53.788</ele>
        <time>2017-06-04T15:58:42.900Z</time>
      </trkpt>
      <trkpt lat="47.94783" lon="0.19887">
        <ele>53.777</ele>
        <time>2017-06-04T15:58:44.817Z</time>
      </trkpt>
      <trkpt lat="47.94805" lon="0.199">
        <ele>53.847</ele>
        <time>2017-06-04T15:58:47.790Z</time>
      </trkpt>
      <trkpt lat="47.94819" lon="0.19908">
        <ele>53.927</ele>
        <time>2017-06-04T15:58:49.802Z</time>
      </trkpt>
      <trkpt lat="47.94841" lon="0.1992">
        <ele>53.956</ele>
        <time>2017-06-04T15:58:52.777Z</time>
      </trkpt>
      <trkpt lat="47.94863" lon="0.19933">
        <ele>53.949</ele>
        <time>2017-06-04T15:58:55.924Z</time>
      </trkpt>
      <trkpt lat="47.94885" lon="0.19943">
        <ele>54.001</ele>
        <time>2017-06-04T15:58:58.861Z</time>
      </trkpt>
      <trkpt lat="47.94904" lon="0.19955">
        <ele>54.244</ele>
        <time>2017-06-04T15:59:01.655Z</time>
      </trkpt>
      <trkpt lat="47.94919" lon="0.19963">
        <ele>54.669</ele>
        <time>2017-06-04T15:59:03.616Z</time>
      </trkpt>
      <trkpt lat="47.9494" lon="0.19974">
        <ele>55.096</ele>
        <time>2017-06-04T15:59:06.563Z</time>
      </trkpt>
      <trkpt lat="47.94961" lon="0.19985">
        <ele>55.491</ele>
        <time>2017-06-04T15:59:09.300Z</time>
      </trkpt>
      <trkpt lat="47.94976" lon="0.19995">
        <ele>55.923</ele>
        <time>2017-06-04T15:59:11.395Z</time>
      </trkpt>
      <trkpt lat="47.94999" lon="0.20006">
        <ele>56.285</ele>
        <time>2017-06-04T15:59:14.352Z</time>
      </trkpt>
      <trkpt lat="47.95014" lon="0.20015">
        <ele>56.468</ele>
        <time>2017-06-04T15:59:16.390Z</time>
      </trkpt>
      <trkpt lat="47.95036" lon="0.20026">
        <ele>56.559</ele>
        <time>2017-06-04T15:59:19.269Z</time>
      </trkpt>
      <trkpt lat="47.95052" lon="0.20033">
        <ele>56.638</ele>
        <time>2017-06-04T15:59:21.222Z</time>
      </trkpt>
      <trkpt lat="47.95075" lon="0.20048">
        <ele>56.788</ele>
        <time>2017-06-04T15:59:24.219Z</time>
      </trkpt>
      <trkpt lat="47.95099" lon="0.2006">
        <ele>57.178</ele>
        <time>2017-06-04T15:59:27.091Z</time>
      </trkpt>
      <trkpt lat="47.95122" lon="0.20074">
        <ele>57.801</ele>
        <time>2017-06-04T15:59:29.922Z</time>
      </trkpt>
      <trkpt lat="47.95138" lon="0.20082">
        <ele>58.372</ele>
        <time>2017-06-04T15:59:31.937Z</time>
      </trkpt>
      <trkpt lat="47.95164" lon="0.20096">
        <ele>58.699</ele>
        <time>2017-06-04T15:59:34.961Z</time>
      </trkpt>
      <trkpt lat="47.9518" lon="0.20105">
        <ele>58.866</ele>
        <time>2017-06-04T15:59:36.839Z</time>
      </trkpt>
      <trkpt lat="47.95205" lon="0.2012">
        <ele>58.999</ele>
        <time>2017-06-04T15:59:39.809Z</time>
      </trkpt>
      <trkpt lat="47.95222" lon="0.2013">
        <ele>59.11</ele>
        <time>2017-06-04T15:59:41.803Z</time>
      </trkpt>
      <trkpt lat="47.95248" lon="0.20143">
        <ele>59.171</ele>
        <time>2017-06-04T15:59:44.843Z</time>
      </trkpt>
      <trkpt lat="47.95271" lon="0.20155">
        <ele>59.189</ele>
        <time>2017-06-04T15:59:47.670Z</time>
      </trkpt>
      <trkpt lat="47.95287" lon="0.20165">
        <ele>59.17</ele>
        <time>2017-06-04T15:59:49.625Z</time>
      </trkpt>
      <trkpt lat="47.95304" lon="0.20174">
        <ele>59.148</ele>
        <time>2017-06-04T15:59:51.659Z</time>
      </trkpt>
      <trkpt lat="47.95319" lon="0.20183">
        <ele>59.199</ele>
        <time>2017-06-04T15:59:53.529Z</time>
      </trkpt>
      <trkpt lat="47.95336" lon="0.20191">
        <ele>59.39</ele>
        <time>2017-06-04T15:59:55.595Z</time>
      </trkpt>
      <trkpt lat="47.95359" lon="0.20204">
        <ele>59.664</ele>
        <time>2017-06-04T15:59:58.627Z</time>
      </trkpt>
      <trkpt lat="47.95373" lon="0.20213">
        <ele>59.742</ele>
        <time>2017-06-04T16:00:00.489Z</time>
      </trkpt>
      <trkpt lat="47.95394" lon="0.20223">
        <ele>59.452</ele>
        <time>2017-06-04T16:00:03.425Z</time>
      </trkpt>
      <trkpt lat="47.95413" lon="0.20234">
        <ele>58.943</ele>
        <time>2017-06-04T16:00:06.446Z</time>
      </trkpt>
      <trkpt lat="47.95427" lon="0.2025">
        <ele>58.446</ele>
        <time>2017-06-04T16:00:09.383Z</time>
      </trkpt>
      <trkpt lat="47.95429" lon="0.20266">
        <ele>58.192</ele>
        <time>2017-06-04T16:00:11.419Z</time>
      </trkpt>
      <trkpt lat="47.95425" lon="0.20289">
        <ele>58.363</ele>
        <time>2017-06-04T16:00:14.468Z</time>
      </trkpt>
      <trkpt lat="47.95422" lon="0.20303">
        <ele>58.889</ele>
        <time>2017-06-04T16:00:16.307Z</time>
      </trkpt>
      <trkpt lat="47.95415" lon="0.20325">
        <ele>59.484</ele>
        <time>2017-06-04T16:00:19.151Z</time>
      </trkpt>
      <trkpt lat="47.95412" lon="0.20339">
        <ele>59.737</ele>
        <time>2017-06-04T16:00:21.000Z</time>
      </trkpt>
      <trkpt lat="47.95412" lon="0.20339">
        <ele>59.518</ele>
        <time>2017-06-04T16:00:26.000Z</time>
      </trkpt>
      <trkpt lat="47.95412" lon="0.20339">
        <ele>59.222</ele>
        <time>2017-06-04T16:01:25.862Z</time>
      </trkpt>
      <trkpt lat="47.95401" lon="0.20366">
        <ele>59.189</ele>
        <time>2017-06-04T16:01:38.387Z</time>
      </trkpt>
      <trkpt lat="47.95397" lon="0.20381">
        <ele>58.838</ele>
        <time>2017-06-04T16:01:41.021Z</time>
      </trkpt>
      <trkpt lat="47.95392" lon="0.20401">
        <ele>57.691</ele>
        <time>2017-06-04T16:01:43.770Z</time>
      </trkpt>
      <trkpt lat="47.95388" lon="0.20417">
        <ele>56.457</ele>
        <time>2017-06-04T16:01:45.819Z</time>
      </trkpt>
      <trkpt lat="47.95377" lon="0.20435">
        <ele>55.874</ele>
        <time>2017-06-04T16:01:48.430Z</time>
      </trkpt>
      <trkpt lat="47.95364" lon="0.20441">
        <ele>55.764</ele>
        <time>2017-06-04T16:01:50.066Z</time>
      </trkpt>
      <trkpt lat="47.95337" lon="0.20435">
        <ele>55.576</ele>
        <time>2017-06-04T16:01:52.774Z</time>
      </trkpt>
      <trkpt lat="47.95313" lon="0.20424">
        <ele>54.994</ele>
        <time>2017-06-04T16:01:54.559Z</time>
      </trkpt>
      <trkpt lat="47.95267" lon="0.20398">
        <ele>54.315</ele>
        <time>2017-06-04T16:01:57.511Z</time>
      </trkpt>
      <trkpt lat="47.95231" lon="0.20376">
        <ele>53.907</ele>
        <time>2017-06-04T16:01:59.409Z</time>
      </trkpt>
      <trkpt lat="47.95167" lon="0.2034">
        <ele>53.705</ele>
        <time>2017-06-04T16:02:02.359Z</time>
      </trkpt>
      <trkpt lat="47.95093" lon="0.20299">
        <ele>53.498</ele>
        <time>2017-06-04T16:02:05.335Z</time>
      </trkpt>
      <trkpt lat="47.95039" lon="0.20269">
        <ele>53.218</ele>
        <time>2017-06-04T16:02:07.301Z</time>
      </trkpt>
      <trkpt lat="47.94953" lon="0.20221">
        <ele>52.988</ele>
        <time>2017-06-04T16:02:10.341Z</time>
      </trkpt>
      <trkpt lat="47.94896" lon="0.20191">
        <ele>53.429</ele>
        <time>2017-06-04T16:02:12.301Z</time>
      </trkpt>
      <trkpt lat="47.94838" lon="0.20161">
        <ele>55.589</ele>
        <time>2017-06-04T16:02:14.286Z</time>
      </trkpt>
      <trkpt lat="47.94778" lon="0.20131">
        <ele>59.546</ele>
        <time>2017-06-04T16:02:16.286Z</time>
      </trkpt>
      <trkpt lat="47.94688" lon="0.20081">
        <ele>63.88</ele>
        <time>2017-06-04T16:02:19.276Z</time>
      </trkpt>
      <trkpt lat="47.94596" lon="0.20029">
        <ele>67.699</ele>
        <time>2017-06-04T16:02:22.258Z</time>
      </trkpt>
      <trkpt lat="47.94533" lon="0.19995">
        <ele>71.655</ele>
        <time>2017-06-04T16:02:24.265Z</time>
      </trkpt>
      <trkpt lat="47.94468" lon="0.19958">
        <ele>75.747</ele>
        <time>2017-06-04T16:02:26.264Z</time>
      </trkpt>
      <trkpt lat="47.9437" lon="0.19903">
        <ele>78.88</ele>
        <time>2017-06-04T16:02:29.281Z</time>
      </trkpt>
      <trkpt lat="47.94305" lon="0.19867">
        <ele>81.644</ele>
        <time>2017-06-04T16:02:31.297Z</time>
      </trkpt>
      <trkpt lat="47.94238" lon="0.19835">
        <ele>85.526</ele>
        <time>2017-06-04T16:02:33.324Z</time>
      </trkpt>
      <trkpt lat="47.94142" lon="0.19797">
        <ele>90.775</ele>
        <time>2017-06-04T16:02:36.282Z</time>
      </trkpt>
      <trkpt lat="47.94043" lon="0.19762">
        <ele>97.43</ele>
        <time>2017-06-04T16:02:39.297Z</time>
      </trkpt>
      <trkpt lat="47.9398" lon="0.19739">
        <ele>106.004</ele>
        <time>2017-06-04T16:02:41.270Z</time>
      </trkpt>
      <trkpt lat="47.93885" lon="0.19702">
        <ele>115.981</ele>
        <time>2017-06-04T16:02:44.263Z</time>
      </trkpt>
      <trkpt lat="47.93824" lon="0.19681">
        <ele>125.963</ele>
        <time>2017-06-04T16:02:46.225Z</time>
      </trkpt>
      <trkpt lat="47.9376" lon="0.19662">
        <ele>134.854</ele>
        <time>2017-06-04T16:02:48.252Z</time>
      </trkpt>
      <trkpt lat="47.93665" lon="0.19636">
        <ele>142.021</ele>
        <time>2017-06-04T16:02:51.257Z</time>
      </trkpt>
      <trkpt lat="47.93571" lon="0.19613">
        <ele>147.642</ele>
        <time>2017-06-04T16:02:54.198Z</time>
      </trkpt>
      <trkpt lat="47.93506" lon="0.19594">
        <ele>152.797</ele>
        <time>2017-06-04T16:02:56.215Z</time>
      </trkpt>
      <trkpt lat="47.9344" lon="0.19578">
        <ele>157.903</ele>
        <time>2017-06-04T16:02:58.203Z</time>
      </trkpt>
      <trkpt lat="47.93342" lon="0.19552">
        <ele>162.922</ele>
        <time>2017-06-04T16:03:01.186Z</time>
      </trkpt>
      <trkpt lat="47.93278" lon="0.19521">
        <ele>168.699</ele>
        <time>2017-06-04T16:03:03.190Z</time>
      </trkpt>
      <trkpt lat="47.93218" lon="0.19478">
        <ele>175.378</ele>
        <time>2017-06-04T16:03:05.172Z</time>
      </trkpt>
      <trkpt lat="47.93135" lon="0.1939">
        <ele>181.438</ele>
        <time>2017-06-04T16:03:08.158Z</time>
      </trkpt>
      <trkpt lat="47.93086" lon="0.19318">
        <ele>185.576</ele>
        <time>2017-06-04T16:03:10.143Z</time>
      </trkpt>
      <trkpt lat="47.93039" lon="0.19238">
        <ele>187.837</ele>
        <time>2017-06-04T16:03:12.138Z</time>
      </trkpt>
      <trkpt lat="47.92981" lon="0.19101">
        <ele>188.743</ele>
        <time>2017-06-04T16:03:15.154Z</time>
      </trkpt>
      <trkpt lat="47.92952" lon="0.19004">
        <ele>188.941</ele>
        <time>2017-06-04T16:03:17.172Z</time>
      </trkpt>
      <trkpt lat="47.92922" lon="0.18859">
        <ele>188.968</ele>
        <time>2017-06-04T16:03:20.074Z</time>
      </trkpt>
      <trkpt lat="47.92913" lon="0.18756">
        <ele>190.421</ele>
        <time>2017-06-04T16:03:22.102Z</time>
      </trkpt>
      <trkpt lat="47.92915" lon="0.18654">
        <ele>194.963</ele>
        <time>2017-06-04T16:03:24.087Z</time>
      </trkpt>
      <trkpt lat="47.92925" lon="0.18499">
        <ele>202.301</ele>
        <time>2017-06-04T16:03:27.147Z</time>
      </trkpt>
      <trkpt lat="47.92937" lon="0.18401">
        <ele>211.742</ele>
        <time>2017-06-04T16:03:29.114Z</time>
      </trkpt>
      <trkpt lat="47.92949" lon="0.18301">
        <ele>223.073</ele>
        <time>2017-06-04T16:03:31.107Z</time>
      </trkpt>
      <trkpt lat="47.92967" lon="0.18148">
        <ele>234.757</ele>
        <time>2017-06-04T16:03:34.161Z</time>
      </trkpt>
      <trkpt lat="47.92978" lon="0.17996">
        <ele>245.569</ele>
        <time>2017-06-04T16:03:37.156Z</time>
      </trkpt>
      <trkpt lat="47.92982" lon="0.17896">
        <ele>256.245</ele>
        <time>2017-06-04T16:03:39.127Z</time>
      </trkpt>
      <trkpt lat="47.92986" lon="0.17794">
        <ele>267.082</ele>
        <time>2017-06-04T16:03:41.138Z</time>
      </trkpt>
      <trkpt lat="47.92991" lon="0.17693">
        <ele>276.403</ele>
        <time>2017-06-04T16:03:43.122Z</time>
      </trkpt>
      <trkpt lat="47.92996" lon="0.17594">
        <ele>283.029</ele>
        <time>2017-06-04T16:03:45.082Z</time>
      </trkpt>
      <trkpt lat="47.93008" lon="0.17445">
        <ele>287.675</ele>
        <time>2017-06-04T16:03:48.046Z</time>
      </trkpt>
      <trkpt lat="47.93018" lon="0.17345">
        <ele>291.822</ele>
        <time>2017-06-04T16:03:50.037Z</time>
      </trkpt>
      <trkpt lat="47.93025" lon="0.17244">
        <ele>296.246</ele>
        <time>2017-06-04T16:03:52.023Z</time>
      </trkpt>
      <trkpt lat="47.93036" lon="0.17143">
        <ele>300.982</ele>
        <time>2017-06-04T16:03:54.009Z</time>
      </trkpt>
      <trkpt lat="47.93055" lon="0.16992">
        <ele>306.236</ele>
        <time>2017-06-04T16:03:56.996Z</time>
      </trkpt>
      <trkpt lat="47.93079" lon="0.1684">
        <ele>312.996</ele>
        <time>2017-06-04T16:04:00.013Z</time>
      </trkpt>
      <trkpt lat="47.93102" lon="0.16687">
        <ele>322.081</ele>
        <time>2017-06-04T16:04:03.035Z</time>
      </trkpt>
      <trkpt lat="47.93122" lon="0.16535">
        <ele>333.39</ele>
        <time>2017-06-04T16:04:06.036Z</time>
      </trkpt>
      <trkpt lat="47.93139" lon="0.16386">
        <ele>346.254</ele>
        <time>2017-06-04T16:04:09.002Z</time>
      </trkpt>
      <trkpt lat="47.93148" lon="0.16287">
        <ele>359.991</ele>
        <time>2017-06-04T16:04:11.001Z</time>
      </trkpt>
      <trkpt lat="47.93159" lon="0.16188">
        <ele>372.654</ele>
        <time>2017-06-04T16:04:13.028Z</time>
      </trkpt>
      <trkpt lat="47.93173" lon="0.16043">
        <ele>381.67</ele>
        <time>2017-06-04T16:04:15.998Z</time>
      </trkpt>
      <trkpt lat="47.93189" lon="0.15899">
        <ele>387.465</ele>
        <time>2017-06-04T16:04:18.906Z</time>
      </trkpt>
      <trkpt lat="47.93205" lon="0.15744">
        <ele>393.095</ele>
        <time>2017-06-04T16:04:21.890Z</time>
      </trkpt>
      <trkpt lat="47.93219" lon="0.15578">
        <ele>398.949</ele>
        <time>2017-06-04T16:04:24.884Z</time>
      </trkpt>
      <trkpt lat="47.93227" lon="0.15464">
        <ele>402.342</ele>
        <time>2017-06-04T16:04:26.881Z</time>
      </trkpt>
      <trkpt lat="47.93235" lon="0.15349">
        <ele>402.077</ele>
        <time>2017-06-04T16:04:28.876Z</time>
      </trkpt>
      <trkpt lat="47.93244" lon="0.15178">
        <ele>399.918</ele>
        <time>2017-06-04T16:04:31.873Z</time>
      </trkpt>
      <trkpt lat="47.93248" lon="0.15063">
        <ele>398.403</ele>
        <time>2017-06-04T16:04:33.872Z</time>
      </trkpt>
      <trkpt lat="47.93258" lon="0.14889">
        <ele>398.523</ele>
        <time>2017-06-04T16:04:36.907Z</time>
      </trkpt>
      <trkpt lat="47.9327" lon="0.1472">
        <ele>399.535</ele>
        <time>2017-06-04T16:04:39.907Z</time>
      </trkpt>
      <trkpt lat="47.93276" lon="0.1461">
        <ele>401.292</ele>
        <time>2017-06-04T16:04:41.910Z</time>
      </trkpt>
      <trkpt lat="47.93285" lon="0.14451">
        <ele>404.907</ele>
        <time>2017-06-04T16:04:44.873Z</time>
      </trkpt>
      <trkpt lat="47.9329" lon="0.14349">
        <ele>410.485</ele>
        <time>2017-06-04T16:04:46.824Z</time>
      </trkpt>
      <trkpt lat="47.93299" lon="0.14194">
        <ele>417.181</ele>
        <time>2017-06-04T16:04:49.773Z</time>
      </trkpt>
      <trkpt lat="47.93307" lon="0.14081">
        <ele>424.675</ele>
        <time>2017-06-04T16:04:51.835Z</time>
      </trkpt>
      <trkpt lat="47.93312" lon="0.13969">
        <ele>431.734</ele>
        <time>2017-06-04T16:04:53.807Z</time>
      </trkpt>
      <trkpt lat="47.93325" lon="0.13791">
        <ele>436.104</ele>
        <time>2017-06-04T16:04:56.830Z</time>
      </trkpt>
      <trkpt lat="47.93336" lon="0.13669">
        <ele>436.39</ele>
        <time>2017-06-04T16:04:58.857Z</time>
      </trkpt>
      <trkpt lat="47.93348" lon="0.13488">
        <ele>432.865</ele>
        <time>2017-06-04T16:05:01.829Z</time>
      </trkpt>
      <trkpt lat="47.93351" lon="0.13369">
        <ele>427.894</ele>
        <time>2017-06-04T16:05:03.809Z</time>
      </trkpt>
      <trkpt lat="47.9333" lon="0.13195">
        <ele>424.566</ele>
        <time>2017-06-04T16:05:06.782Z</time>
      </trkpt>
      <trkpt lat="47.93313" lon="0.13082">
        <ele>424.31</ele>
        <time>2017-06-04T16:05:08.753Z</time>
      </trkpt>
      <trkpt lat="47.93296" lon="0.12967">
        <ele>426.298</ele>
        <time>2017-06-04T16:05:10.762Z</time>
      </trkpt>
      <trkpt lat="47.93268" lon="0.12797">
        <ele>428.426</ele>
        <time>2017-06-04T16:05:13.751Z</time>
      </trkpt>
      <trkpt lat="47.93252" lon="0.12686">
        <ele>429.392</ele>
        <time>2017-06-04T16:05:15.732Z</time>
      </trkpt>
      <trkpt lat="47.93229" lon="0.12523">
        <ele>429.066</ele>
        <time>2017-06-04T16:05:18.688Z</time>
      </trkpt>
      <trkpt lat="47.93212" lon="0.12415">
        <ele>427.447</ele>
        <time>2017-06-04T16:05:20.653Z</time>
      </trkpt>
      <trkpt lat="47.93183" lon="0.12247">
        <ele>424.556</ele>
        <time>2017-06-04T16:05:23.640Z</time>
      </trkpt>
      <trkpt lat="47.93153" lon="0.12068">
        <ele>420.103</ele>
        <time>2017-06-04T16:05:26.695Z</time>
      </trkpt>
      <trkpt lat="47.93125" lon="0.11888">
        <ele>413.789</ele>
        <time>2017-06-04T16:05:29.703Z</time>
      </trkpt>
      <trkpt lat="47.93109" lon="0.1177">
        <ele>406.546</ele>
        <time>2017-06-04T16:05:31.691Z</time>
      </trkpt>
      <trkpt lat="47.93094" lon="0.11599">
        <ele>400.58</ele>
        <time>2017-06-04T16:05:34.645Z</time>
      </trkpt>
      <trkpt lat="47.93094" lon="0.11434">
        <ele>398.573</ele>
        <time>2017-06-04T16:05:37.571Z</time>
      </trkpt>
      <trkpt lat="47.93106" lon="0.11326">
        <ele>401.229</ele>
        <time>2017-06-04T16:05:39.560Z</time>
      </trkpt>
      <trkpt lat="47.9314" lon="0.11171">
        <ele>405.824</ele>
        <time>2017-06-04T16:05:42.536Z</time>
      </trkpt>
      <trkpt lat="47.93171" lon="0.11073">
        <ele>409.159</ele>
        <time>2017-06-04T16:05:44.533Z</time>
      </trkpt>
      <trkpt lat="47.93209" lon="0.1098">
        <ele>410.892</ele>
        <time>2017-06-04T16:05:46.538Z</time>
      </trkpt>
      <trkpt lat="47.93271" lon="0.10847">
        <ele>412.476</ele>
        <time>2017-06-04T16:05:49.556Z</time>
      </trkpt>
      <trkpt lat="47.93312" lon="0.10759">
        <ele>415.058</ele>
        <time>2017-06-04T16:05:51.558Z</time>
      </trkpt>
      <trkpt lat="47.93354" lon="0.10672">
        <ele>418.305</ele>
        <time>2017-06-04T16:05:53.534Z</time>
      </trkpt>
      <trkpt lat="47.93414" lon="0.10535">
        <ele>421.083</ele>
        <time>2017-06-04T16:05:56.522Z</time>
      </trkpt>
      <trkpt lat="47.93473" lon="0.1039">
        <ele>422.783</ele>
        <time>2017-06-04T16:05:59.550Z</time>
      </trkpt>
      <trkpt lat="47.93525" lon="0.10242">
        <ele>423.509</ele>
        <time>2017-06-04T16:06:02.528Z</time>
      </trkpt>
      <trkpt lat="47.93559" lon="0.10144">
        <ele>424</ele>
        <time>2017-06-04T16:06:04.517Z</time>
      </trkpt>
      <trkpt lat="47.93607" lon="0.09995">
        <ele>425.035</ele>
        <time>2017-06-04T16:06:07.510Z</time>
      </trkpt>
      <trkpt lat="47.93654" lon="0.09848">
        <ele>426.362</ele>
        <time>2017-06-04T16:06:10.492Z</time>
      </trkpt>
      <trkpt lat="47.937" lon="0.09704">
        <ele>428.071</ele>
        <time>2017-06-04T16:06:13.475Z</time>
      </trkpt>
      <trkpt lat="47.93731" lon="0.09611">
        <ele>430.678</ele>
        <time>2017-06-04T16:06:15.452Z</time>
      </trkpt>
      <trkpt lat="47.93761" lon="0.09518">
        <ele>433.501</ele>
        <time>2017-06-04T16:06:17.406Z</time>
      </trkpt>
      <trkpt lat="47.93792" lon="0.09424">
        <ele>435.441</ele>
        <time>2017-06-04T16:06:19.412Z</time>
      </trkpt>
      <trkpt lat="47.93823" lon="0.0933">
        <ele>436.286</ele>
        <time>2017-06-04T16:06:21.404Z</time>
      </trkpt>
      <trkpt lat="47.93868" lon="0.09187">
        <ele>436.169</ele>
        <time>2017-06-04T16:06:24.369Z</time>
      </trkpt>
      <trkpt lat="47.939" lon="0.09088">
        <ele>435.084</ele>
        <time>2017-06-04T16:06:26.392Z</time>
      </trkpt>
      <trkpt lat="47.93948" lon="0.08935">
        <ele>433.125</ele>
        <time>2017-06-04T16:06:29.421Z</time>
      </trkpt>
      <trkpt lat="47.93994" lon="0.08778">
        <ele>430.848</ele>
        <time>2017-06-04T16:06:32.424Z</time>
      </trkpt>
      <trkpt lat="47.94027" lon="0.08672">
        <ele>429.016</ele>
        <time>2017-06-04T16:06:34.438Z</time>
      </trkpt>
      <trkpt lat="47.94057" lon="0.08565">
        <ele>428.309</ele>
        <time>2017-06-04T16:06:36.435Z</time>
      </trkpt>
      <trkpt lat="47.94098" lon="0.08405">
        <ele>429.327</ele>
        <time>2017-06-04T16:06:39.404Z</time>
      </trkpt>
      <trkpt lat="47.94128" lon="0.083">
        <ele>433.167</ele>
        <time>2017-06-04T16:06:41.409Z</time>
      </trkpt>
      <trkpt lat="47.9416" lon="0.08198">
        <ele>439.906</ele>
        <time>2017-06-04T16:06:43.393Z</time>
      </trkpt>
      <trkpt lat="47.94218" lon="0.08051">
        <ele>447.75</ele>
        <time>2017-06-04T16:06:46.435Z</time>
      </trkpt>
      <trkpt lat="47.94278" lon="0.07911">
        <ele>455.669</ele>
        <time>2017-06-04T16:06:49.416Z</time>
      </trkpt>
      <trkpt lat="47.94338" lon="0.07772">
        <ele>463.787</ele>
        <time>2017-06-04T16:06:52.407Z</time>
      </trkpt>
      <trkpt lat="47.94398" lon="0.07637">
        <ele>471.194</ele>
        <time>2017-06-04T16:06:55.349Z</time>
      </trkpt>
      <trkpt lat="47.94459" lon="0.07502">
        <ele>476.362</ele>
        <time>2017-06-04T16:06:58.323Z</time>
      </trkpt>
      <trkpt lat="47.94501" lon="0.0741">
        <ele>478.225</ele>
        <time>2017-06-04T16:07:00.307Z</time>
      </trkpt>
      <trkpt lat="47.94542" lon="0.07314">
        <ele>476.765</ele>
        <time>2017-06-04T16:07:02.312Z</time>
      </trkpt>
      <trkpt lat="47.94582" lon="0.07216">
        <ele>473.343</ele>
        <time>2017-06-04T16:07:04.297Z</time>
      </trkpt>
      <trkpt lat="47.94644" lon="0.07062">
        <ele>469.953</ele>
        <time>2017-06-04T16:07:07.303Z</time>
      </trkpt>
      <trkpt lat="47.94688" lon="0.06956">
        <ele>467.458</ele>
        <time>2017-06-04T16:07:09.325Z</time>
      </trkpt>
      <trkpt lat="47.94731" lon="0.06849">
        <ele>465.017</ele>
        <time>2017-06-04T16:07:11.329Z</time>
      </trkpt>
      <trkpt lat="47.94774" lon="0.06741">
        <ele>461.534</ele>
        <time>2017-06-04T16:07:13.347Z</time>
      </trkpt>
      <trkpt lat="47.94817" lon="0.06635">
        <ele>457.596</ele>
        <time>2017-06-04T16:07:15.336Z</time>
      </trkpt>
      <trkpt lat="47.94881" lon="0.06479">
        <ele>454.891</ele>
        <time>2017-06-04T16:07:18.337Z</time>
      </trkpt>
      <trkpt lat="47.94923" lon="0.06375">
        <ele>453.994</ele>
        <time>2017-06-04T16:07:20.339Z</time>
      </trkpt>
      <trkpt lat="47.94987" lon="0.06223">
        <ele>454.002</ele>
        <time>2017-06-04T16:07:23.314Z</time>
      </trkpt>
      <trkpt lat="47.95029" lon="0.06121">
        <ele>454.003</ele>
        <time>2017-06-04T16:07:25.308Z</time>
      </trkpt>
      <trkpt lat="47.9507" lon="0.06017">
        <ele>453.753</ele>
        <time>2017-06-04T16:07:27.311Z</time>
      </trkpt>
      <trkpt lat="47.9513" lon="0.05868">
        <ele>454.191</ele>
        <time>2017-06-04T16:07:30.269Z</time>
      </trkpt>
      <trkpt lat="47.95169" lon="0.05769">
        <ele>457.557</ele>
        <time>2017-06-04T16:07:32.257Z</time>
      </trkpt>
      <trkpt lat="47.95229" lon="0.05623">
        <ele>464.61</ele>
        <time>2017-06-04T16:07:35.230Z</time>
      </trkpt>
      <trkpt lat="47.95268" lon="0.05524">
        <ele>472.23</ele>
        <time>2017-06-04T16:07:37.215Z</time>
      </trkpt>
      <trkpt lat="47.95328" lon="0.05371">
        <ele>476.525</ele>
        <time>2017-06-04T16:07:40.207Z</time>
      </trkpt>
      <trkpt lat="47.95389" lon="0.05212">
        <ele>475.726</ele>
        <time>2017-06-04T16:07:43.212Z</time>
      </trkpt>
      <trkpt lat="47.95431" lon="0.05101">
        <ele>469.57</ele>
        <time>2017-06-04T16:07:45.217Z</time>
      </trkpt>
      <trkpt lat="47.9549" lon="0.0493">
        <ele>460.118</ele>
        <time>2017-06-04T16:07:48.221Z</time>
      </trkpt>
      <trkpt lat="47.95528" lon="0.04814">
        <ele>451.061</ele>
        <time>2017-06-04T16:07:50.233Z</time>
      </trkpt>
      <trkpt lat="47.95589" lon="0.04644">
        <ele>444.777</ele>
        <time>2017-06-04T16:07:53.227Z</time>
      </trkpt>
      <trkpt lat="47.95649" lon="0.04477">
        <ele>441.651</ele>
        <time>2017-06-04T16:07:56.195Z</time>
      </trkpt>
      <trkpt lat="47.95688" lon="0.04364">
        <ele>440.602</ele>
        <time>2017-06-04T16:07:58.185Z</time>
      </trkpt>
      <trkpt lat="47.95747" lon="0.04192">
        <ele>439.63</ele>
        <time>2017-06-04T16:08:01.191Z</time>
      </trkpt>
      <trkpt lat="47.95809" lon="0.04019">
        <ele>437.029</ele>
        <time>2017-06-04T16:08:04.186Z</time>
      </trkpt>
      <trkpt lat="47.95872" lon="0.03842">
        <ele>432.331</ele>
        <time>2017-06-04T16:08:07.221Z</time>
      </trkpt>
      <trkpt lat="47.95913" lon="0.03727">
        <ele>427.183</ele>
        <time>2017-06-04T16:08:09.183Z</time>
      </trkpt>
      <trkpt lat="47.95954" lon="0.03612">
        <ele>423.948</ele>
        <time>2017-06-04T16:08:11.176Z</time>
      </trkpt>
      <trkpt lat="47.96018" lon="0.03444">
        <ele>423.46</ele>
        <time>2017-06-04T16:08:14.154Z</time>
      </trkpt>
      <trkpt lat="47.9608" lon="0.03274">
        <ele>424.877</ele>
        <time>2017-06-04T16:08:17.138Z</time>
      </trkpt>
      <trkpt lat="47.9612" lon="0.03161">
        <ele>427.033</ele>
        <time>2017-06-04T16:08:19.119Z</time>
      </trkpt>
      <trkpt lat="47.96161" lon="0.03048">
        <ele>429.734</ele>
        <time>2017-06-04T16:08:21.117Z</time>
      </trkpt>
      <trkpt lat="47.96202" lon="0.02937">
        <ele>433.46</ele>
        <time>2017-06-04T16:08:23.102Z</time>
      </trkpt>
      <trkpt lat="47.96266" lon="0.02769">
        <ele>437.875</ele>
        <time>2017-06-04T16:08:26.108Z</time>
      </trkpt>
      <trkpt lat="47.96308" lon="0.02659">
        <ele>441.716</ele>
        <time>2017-06-04T16:08:28.085Z</time>
      </trkpt>
      <trkpt lat="47.9635" lon="0.0255">
        <ele>444.313</ele>
        <time>2017-06-04T16:08:30.067Z</time>
      </trkpt>
      <trkpt lat="47.96394" lon="0.02441">
        <ele>446.25</ele>
        <time>2017-06-04T16:08:32.063Z</time>
      </trkpt>
      <trkpt lat="47.96464" lon="0.02267">
        <ele>447.919</ele>
        <time>2017-06-04T16:08:35.134Z</time>
      </trkpt>
      <trkpt lat="47.96542" lon="0.02091">
        <ele>446.378</ele>
        <time>2017-06-04T16:08:38.157Z</time>
      </trkpt>
      <trkpt lat="47.96599" lon="0.01976">
        <ele>437.573</ele>
        <time>2017-06-04T16:08:40.156Z</time>
      </trkpt>
      <trkpt lat="47.96685" lon="0.01808">
        <ele>423.47</ele>
        <time>2017-06-04T16:08:43.116Z</time>
      </trkpt>
      <trkpt lat="47.96741" lon="0.01697">
        <ele>411.108</ele>
        <time>2017-06-04T16:08:45.095Z</time>
      </trkpt>
      <trkpt lat="47.96828" lon="0.01533">
        <ele>404.131</ele>
        <time>2017-06-04T16:08:48.084Z</time>
      </trkpt>
      <trkpt lat="47.96883" lon="0.01427">
        <ele>401.449</ele>
        <time>2017-06-04T16:08:50.039Z</time>
      </trkpt>
      <trkpt lat="47.96966" lon="0.0127">
        <ele>401.068</ele>
        <time>2017-06-04T16:08:53.035Z</time>
      </trkpt>
      <trkpt lat="47.97045" lon="0.01112">
        <ele>401.76</ele>
        <time>2017-06-04T16:08:56.014Z</time>
      </trkpt>
      <trkpt lat="47.97111" lon="0.00944">
        <ele>402.954</ele>
        <time>2017-06-04T16:08:58.978Z</time>
      </trkpt>
      <trkpt lat="47.9716" lon="0.00766">
        <ele>404.355</ele>
        <time>2017-06-04T16:09:01.958Z</time>
      </trkpt>
      <trkpt lat="47.97178" lon="0.00641">
        <ele>405.486</ele>
        <time>2017-06-04T16:09:03.959Z</time>
      </trkpt>
      <trkpt lat="47.97177" lon="0.00513">
        <ele>406.027</ele>
        <time>2017-06-04T16:09:05.964Z</time>
      </trkpt>
      <trkpt lat="47.97144" lon="0.00331">
        <ele>405.418</ele>
        <time>2017-06-04T16:09:08.941Z</time>
      </trkpt>
      <trkpt lat="47.97101" lon="0.0022">
        <ele>402.378</ele>
        <time>2017-06-04T16:09:10.946Z</time>
      </trkpt>
      <trkpt lat="47.97003" lon="0.0009">
        <ele>396.713</ele>
        <time>2017-06-04T16:09:13.979Z</time>
      </trkpt>
      <trkpt lat="47.96923" lon="0.00034">
        <ele>389.747</ele>
        <time>2017-06-04T16:09:15.992Z</time>
      </trkpt>
      <trkpt lat="47.96836" lon="1.0E-5">
        <ele>382.599</ele>
        <time>2017-06-04T16:09:17.995Z</time>
      </trkpt>
      <trkpt lat="47.96744" lon="-0.00012">
        <ele>375.501</ele>
        <time>2017-06-04T16:09:20.021Z</time>
      </trkpt>
      <trkpt lat="47.96603" lon="-0.00015">
        <ele>367.999</ele>
        <time>2017-06-04T16:09:23.060Z</time>
      </trkpt>
      <trkpt lat="47.96512" lon="-0.00017">
        <ele>359.802</ele>
        <time>2017-06-04T16:09:25.044Z</time>
      </trkpt>
      <trkpt lat="47.96379" lon="-0.00022">
        <ele>352.54</ele>
        <time>2017-06-04T16:09:28.014Z</time>
      </trkpt>
      <trkpt lat="47.96292" lon="-0.00019">
        <ele>349.46</ele>
        <time>2017-06-04T16:09:30.005Z</time>
      </trkpt>
      <trkpt lat="47.96162" lon="-0.00017">
        <ele>351.856</ele>
        <time>2017-06-04T16:09:33.008Z</time>
      </trkpt>
      <trkpt lat="47.96032" lon="-0.00013">
        <ele>356.971</ele>
        <time>2017-06-04T16:09:36.007Z</time>
      </trkpt>
      <trkpt lat="47.95904" lon="-0.00011">
        <ele>361.257</ele>
        <time>2017-06-04T16:09:38.972Z</time>
      </trkpt>
      <trkpt lat="47.95819" lon="-8.0E-5">
        <ele>363.659</ele>
        <time>2017-06-04T16:09:40.947Z</time>
      </trkpt>
      <trkpt lat="47.95693" lon="6.0E-5">
        <ele>365.153</ele>
        <time>2017-06-04T16:09:43.932Z</time>
      </trkpt>
      <trkpt lat="47.95609" lon="0.00017">
        <ele>366.575</ele>
        <time>2017-06-04T16:09:45.910Z</time>
      </trkpt>
      <trkpt lat="47.95482" lon="0.00038">
        <ele>367.237</ele>
        <time>2017-06-04T16:09:48.914Z</time>
      </trkpt>
      <trkpt lat="47.95357" lon="0.00059">
        <ele>365.696</ele>
        <time>2017-06-04T16:09:51.896Z</time>
      </trkpt>
      <trkpt lat="47.95233" lon="0.0008">
        <ele>362.026</ele>
        <time>2017-06-04T16:09:54.873Z</time>
      </trkpt>
      <trkpt lat="47.95149" lon="0.00094">
        <ele>357.624</ele>
        <time>2017-06-04T16:09:56.876Z</time>
      </trkpt>
      <trkpt lat="47.95065" lon="0.00107">
        <ele>352.95</ele>
        <time>2017-06-04T16:09:58.859Z</time>
      </trkpt>
      <trkpt lat="47.94936" lon="0.0012">
        <ele>347.723</ele>
        <time>2017-06-04T16:10:01.868Z</time>
      </trkpt>
      <trkpt lat="47.94804" lon="0.00137">
        <ele>342.182</ele>
        <time>2017-06-04T16:10:04.895Z</time>
      </trkpt>
      <trkpt lat="47.94675" lon="0.0016">
        <ele>337.091</ele>
        <time>2017-06-04T16:10:07.870Z</time>
      </trkpt>
      <trkpt lat="47.94547" lon="0.00186">
        <ele>333.612</ele>
        <time>2017-06-04T16:10:10.854Z</time>
      </trkpt>
      <trkpt lat="47.94463" lon="0.00212">
        <ele>332.923</ele>
        <time>2017-06-04T16:10:12.840Z</time>
      </trkpt>
      <trkpt lat="47.94337" lon="0.00248">
        <ele>335.305</ele>
        <time>2017-06-04T16:10:15.850Z</time>
      </trkpt>
      <trkpt lat="47.94253" lon="0.00271">
        <ele>339.56</ele>
        <time>2017-06-04T16:10:17.834Z</time>
      </trkpt>
      <trkpt lat="47.94128" lon="0.00303">
        <ele>343.56</ele>
        <time>2017-06-04T16:10:20.832Z</time>
      </trkpt>
      <trkpt lat="47.94004" lon="0.00335">
        <ele>346.456</ele>
        <time>2017-06-04T16:10:23.795Z</time>
      </trkpt>
      <trkpt lat="47.93921" lon="0.00357">
        <ele>348.621</ele>
        <time>2017-06-04T16:10:25.813Z</time>
      </trkpt>
      <trkpt lat="47.93798" lon="0.00395">
        <ele>350.073</ele>
        <time>2017-06-04T16:10:28.800Z</time>
      </trkpt>
      <trkpt lat="47.93717" lon="0.00417">
        <ele>350.506</ele>
        <time>2017-06-04T16:10:30.776Z</time>
      </trkpt>
      <trkpt lat="47.93596" lon="0.00455">
        <ele>350.186</ele>
        <time>2017-06-04T16:10:33.757Z</time>
      </trkpt>
      <trkpt lat="47.93513" lon="0.00479">
        <ele>349.641</ele>
        <time>2017-06-04T16:10:35.774Z</time>
      </trkpt>
      <trkpt lat="47.93388" lon="0.00516">
        <ele>349.011</ele>
        <time>2017-06-04T16:10:38.770Z</time>
      </trkpt>
      <trkpt lat="47.93261" lon="0.00556">
        <ele>348.03</ele>
        <time>2017-06-04T16:10:41.811Z</time>
      </trkpt>
      <trkpt lat="47.93137" lon="0.00604">
        <ele>346.887</ele>
        <time>2017-06-04T16:10:44.804Z</time>
      </trkpt>
      <trkpt lat="47.93053" lon="0.0064">
        <ele>346.123</ele>
        <time>2017-06-04T16:10:46.832Z</time>
      </trkpt>
      <trkpt lat="47.92969" lon="0.00678">
        <ele>345.224</ele>
        <time>2017-06-04T16:10:48.835Z</time>
      </trkpt>
      <trkpt lat="47.92883" lon="0.0072">
        <ele>342.538</ele>
        <time>2017-06-04T16:10:50.853Z</time>
      </trkpt>
      <trkpt lat="47.92797" lon="0.0077">
        <ele>337.251</ele>
        <time>2017-06-04T16:10:52.883Z</time>
      </trkpt>
      <trkpt lat="47.92714" lon="0.0083">
        <ele>330.399</ele>
        <time>2017-06-04T16:10:54.908Z</time>
      </trkpt>
      <trkpt lat="47.92604" lon="0.00947">
        <ele>323.767</ele>
        <time>2017-06-04T16:10:57.885Z</time>
      </trkpt>
      <trkpt lat="47.92543" lon="0.01048">
        <ele>318.345</ele>
        <time>2017-06-04T16:10:59.878Z</time>
      </trkpt>
      <trkpt lat="47.92496" lon="0.01165">
        <ele>314.221</ele>
        <time>2017-06-04T16:11:01.874Z</time>
      </trkpt>
      <trkpt lat="47.92462" lon="0.01362">
        <ele>311.195</ele>
        <time>2017-06-04T16:11:04.857Z</time>
      </trkpt>
      <trkpt lat="47.92462" lon="0.01499">
        <ele>308.768</ele>
        <time>2017-06-04T16:11:06.855Z</time>
      </trkpt>
      <trkpt lat="47.92508" lon="0.01692">
        <ele>306.332</ele>
        <time>2017-06-04T16:11:09.861Z</time>
      </trkpt>
      <trkpt lat="47.92594" lon="0.0185">
        <ele>303.799</ele>
        <time>2017-06-04T16:11:12.872Z</time>
      </trkpt>
      <trkpt lat="47.92668" lon="0.01927">
        <ele>301.521</ele>
        <time>2017-06-04T16:11:14.867Z</time>
      </trkpt>
      <trkpt lat="47.92793" lon="0.01995">
        <ele>299.89</ele>
        <time>2017-06-04T16:11:17.843Z</time>
      </trkpt>
      <trkpt lat="47.92918" lon="0.0204">
        <ele>299.013</ele>
        <time>2017-06-04T16:11:20.792Z</time>
      </trkpt>
      <trkpt lat="47.9304" lon="0.02087">
        <ele>299.301</ele>
        <time>2017-06-04T16:11:23.746Z</time>
      </trkpt>
      <trkpt lat="47.93123" lon="0.02113">
        <ele>301.295</ele>
        <time>2017-06-04T16:11:25.753Z</time>
      </trkpt>
      <trkpt lat="47.93242" lon="0.02184">
        <ele>304.148</ele>
        <time>2017-06-04T16:11:28.764Z</time>
      </trkpt>
      <trkpt lat="47.93304" lon="0.02276">
        <ele>306.07</ele>
        <time>2017-06-04T16:11:30.789Z</time>
      </trkpt>
      <trkpt lat="47.93381" lon="0.0243">
        <ele>306.404</ele>
        <time>2017-06-04T16:11:33.760Z</time>
      </trkpt>
      <trkpt lat="47.93405" lon="0.02551">
        <ele>305.84</ele>
        <time>2017-06-04T16:11:35.727Z</time>
      </trkpt>
      <trkpt lat="47.93221" lon="0.02755">
        <ele>305.281</ele>
        <time>2017-06-04T16:11:41.372Z</time>
      </trkpt>
      <trkpt lat="47.93206" lon="0.02873">
        <ele>306.183</ele>
        <time>2017-06-04T16:11:43.317Z</time>
      </trkpt>
      <trkpt lat="47.93199" lon="0.03047">
        <ele>310.145</ele>
        <time>2017-06-04T16:11:46.212Z</time>
      </trkpt>
      <trkpt lat="47.93203" lon="0.03218">
        <ele>317.095</ele>
        <time>2017-06-04T16:11:49.204Z</time>
      </trkpt>
      <trkpt lat="47.93211" lon="0.03326">
        <ele>325.121</ele>
        <time>2017-06-04T16:11:51.298Z</time>
      </trkpt>
      <trkpt lat="47.93221" lon="0.03426">
        <ele>332.545</ele>
        <time>2017-06-04T16:11:53.501Z</time>
      </trkpt>
      <trkpt lat="47.93234" lon="0.03553">
        <ele>339.872</ele>
        <time>2017-06-04T16:11:56.672Z</time>
      </trkpt>
      <trkpt lat="47.93243" lon="0.03626">
        <ele>349.834</ele>
        <time>2017-06-04T16:11:58.800Z</time>
      </trkpt>
      <trkpt lat="47.93252" lon="0.0369">
        <ele>363.425</ele>
        <time>2017-06-04T16:12:00.683Z</time>
      </trkpt>
      <trkpt lat="47.9326" lon="0.03751">
        <ele>378.453</ele>
        <time>2017-06-04T16:12:02.361Z</time>
      </trkpt>
      <trkpt lat="47.9328" lon="0.03863">
        <ele>391.066</ele>
        <time>2017-06-04T16:12:04.896Z</time>
      </trkpt>
      <trkpt lat="47.93312" lon="0.04026">
        <ele>393.586</ele>
        <time>2017-06-04T16:12:08.018Z</time>
      </trkpt>
      <trkpt lat="47.93334" lon="0.04149">
        <ele>378.335</ele>
        <time>2017-06-04T16:12:10.065Z</time>
      </trkpt>
      <trkpt lat="47.93363" lon="0.04332">
        <ele>351.324</ele>
        <time>2017-06-04T16:12:13.051Z</time>
      </trkpt>
      <trkpt lat="47.93381" lon="0.04455">
        <ele>328.785</ele>
        <time>2017-06-04T16:12:15.019Z</time>
      </trkpt>
      <trkpt lat="47.93408" lon="0.04645">
        <ele>318.962</ele>
        <time>2017-06-04T16:12:18.021Z</time>
      </trkpt>
      <trkpt lat="47.93424" lon="0.04772">
        <ele>318.396</ele>
        <time>2017-06-04T16:12:19.986Z</time>
      </trkpt>
      <trkpt lat="47.93446" lon="0.04967">
        <ele>320.828</ele>
        <time>2017-06-04T16:12:22.943Z</time>
      </trkpt>
      <trkpt lat="47.93469" lon="0.05168">
        <ele>321.955</ele>
        <time>2017-06-04T16:12:25.943Z</time>
      </trkpt>
      <trkpt lat="47.93485" lon="0.05303">
        <ele>320.399</ele>
        <time>2017-06-04T16:12:27.950Z</time>
      </trkpt>
      <trkpt lat="47.9351" lon="0.05504">
        <ele>317.124</ele>
        <time>2017-06-04T16:12:30.953Z</time>
      </trkpt>
      <trkpt lat="47.93526" lon="0.05638">
        <ele>314.065</ele>
        <time>2017-06-04T16:12:32.958Z</time>
      </trkpt>
      <trkpt lat="47.93541" lon="0.05771">
        <ele>312.687</ele>
        <time>2017-06-04T16:12:35.006Z</time>
      </trkpt>
      <trkpt lat="47.9356" lon="0.05967">
        <ele>313.4</ele>
        <time>2017-06-04T16:12:38.168Z</time>
      </trkpt>
      <trkpt lat="47.93571" lon="0.06078">
        <ele>316.222</ele>
        <time>2017-06-04T16:12:40.167Z</time>
      </trkpt>
      <trkpt lat="47.93588" lon="0.06236">
        <ele>322.89</ele>
        <time>2017-06-04T16:12:42.998Z</time>
      </trkpt>
      <trkpt lat="47.93603" lon="0.06351">
        <ele>333.71</ele>
        <time>2017-06-04T16:12:44.940Z</time>
      </trkpt>
      <trkpt lat="47.93629" lon="0.06535">
        <ele>344.043</ele>
        <time>2017-06-04T16:12:47.906Z</time>
      </trkpt>
      <trkpt lat="47.93654" lon="0.06726">
        <ele>348.232</ele>
        <time>2017-06-04T16:12:50.875Z</time>
      </trkpt>
      <trkpt lat="47.93685" lon="0.06919">
        <ele>345.272</ele>
        <time>2017-06-04T16:12:53.846Z</time>
      </trkpt>
      <trkpt lat="47.93706" lon="0.07046">
        <ele>339.03</ele>
        <time>2017-06-04T16:12:55.816Z</time>
      </trkpt>
      <trkpt lat="47.93729" lon="0.07177">
        <ele>334.212</ele>
        <time>2017-06-04T16:12:57.852Z</time>
      </trkpt>
      <trkpt lat="47.93762" lon="0.07368">
        <ele>332.561</ele>
        <time>2017-06-04T16:13:00.845Z</time>
      </trkpt>
      <trkpt lat="47.93796" lon="0.07557">
        <ele>334.011</ele>
        <time>2017-06-04T16:13:03.827Z</time>
      </trkpt>
      <trkpt lat="47.93831" lon="0.07746">
        <ele>337.742</ele>
        <time>2017-06-04T16:13:06.815Z</time>
      </trkpt>
      <trkpt lat="47.93852" lon="0.07871">
        <ele>341.95</ele>
        <time>2017-06-04T16:13:08.804Z</time>
      </trkpt>
      <trkpt lat="47.93872" lon="0.07998">
        <ele>344.907</ele>
        <time>2017-06-04T16:13:10.826Z</time>
      </trkpt>
      <trkpt lat="47.93902" lon="0.08184">
        <ele>346.354</ele>
        <time>2017-06-04T16:13:13.812Z</time>
      </trkpt>
      <trkpt lat="47.93931" lon="0.0837">
        <ele>346.96</ele>
        <time>2017-06-04T16:13:16.771Z</time>
      </trkpt>
      <trkpt lat="47.93951" lon="0.0856">
        <ele>347.017</ele>
        <time>2017-06-04T16:13:19.738Z</time>
      </trkpt>
      <trkpt lat="47.93966" lon="0.08756">
        <ele>345.787</ele>
        <time>2017-06-04T16:13:22.733Z</time>
      </trkpt>
      <trkpt lat="47.93982" lon="0.08951">
        <ele>343.222</ele>
        <time>2017-06-04T16:13:25.735Z</time>
      </trkpt>
      <trkpt lat="47.9399" lon="0.0908">
        <ele>341.52</ele>
        <time>2017-06-04T16:13:27.729Z</time>
      </trkpt>
      <trkpt lat="47.93994" lon="0.0921">
        <ele>342.877</ele>
        <time>2017-06-04T16:13:29.731Z</time>
      </trkpt>
      <trkpt lat="47.93998" lon="0.0934">
        <ele>346.783</ele>
        <time>2017-06-04T16:13:31.738Z</time>
      </trkpt>
      <trkpt lat="47.94009" lon="0.09531">
        <ele>351.309</ele>
        <time>2017-06-04T16:13:34.713Z</time>
      </trkpt>
      <trkpt lat="47.94017" lon="0.0966">
        <ele>355.653</ele>
        <time>2017-06-04T16:13:36.682Z</time>
      </trkpt>
      <trkpt lat="47.94027" lon="0.09856">
        <ele>359.73</ele>
        <time>2017-06-04T16:13:39.667Z</time>
      </trkpt>
      <trkpt lat="47.94032" lon="0.10056">
        <ele>362.808</ele>
        <time>2017-06-04T16:13:42.671Z</time>
      </trkpt>
      <trkpt lat="47.94034" lon="0.10256">
        <ele>364.718</ele>
        <time>2017-06-04T16:13:45.663Z</time>
      </trkpt>
      <trkpt lat="47.94033" lon="0.10454">
        <ele>366.19</ele>
        <time>2017-06-04T16:13:48.642Z</time>
      </trkpt>
      <trkpt lat="47.94029" lon="0.10587">
        <ele>367.314</ele>
        <time>2017-06-04T16:13:50.625Z</time>
      </trkpt>
      <trkpt lat="47.94027" lon="0.10722">
        <ele>367.788</ele>
        <time>2017-06-04T16:13:52.611Z</time>
      </trkpt>
      <trkpt lat="47.94026" lon="0.10858">
        <ele>367.492</ele>
        <time>2017-06-04T16:13:54.594Z</time>
      </trkpt>
      <trkpt lat="47.9403" lon="0.11065">
        <ele>366.443</ele>
        <time>2017-06-04T16:13:57.585Z</time>
      </trkpt>
      <trkpt lat="47.94034" lon="0.11203">
        <ele>365.13</ele>
        <time>2017-06-04T16:13:59.594Z</time>
      </trkpt>
      <trkpt lat="47.94041" lon="0.11408">
        <ele>364.588</ele>
        <time>2017-06-04T16:14:02.598Z</time>
      </trkpt>
      <trkpt lat="47.94045" lon="0.11606">
        <ele>366.704</ele>
        <time>2017-06-04T16:14:05.576Z</time>
      </trkpt>
      <trkpt lat="47.94049" lon="0.11803">
        <ele>373.242</ele>
        <time>2017-06-04T16:14:08.522Z</time>
      </trkpt>
      <trkpt lat="47.94047" lon="0.12005">
        <ele>382.614</ele>
        <time>2017-06-04T16:14:11.502Z</time>
      </trkpt>
      <trkpt lat="47.9404" lon="0.12143">
        <ele>390.364</ele>
        <time>2017-06-04T16:14:13.508Z</time>
      </trkpt>
      <trkpt lat="47.94032" lon="0.1235">
        <ele>393.873</ele>
        <time>2017-06-04T16:14:16.477Z</time>
      </trkpt>
      <trkpt lat="47.94025" lon="0.1256">
        <ele>393.858</ele>
        <time>2017-06-04T16:14:19.450Z</time>
      </trkpt>
      <trkpt lat="47.94022" lon="0.12776">
        <ele>392.114</ele>
        <time>2017-06-04T16:14:22.457Z</time>
      </trkpt>
      <trkpt lat="47.94023" lon="0.12991">
        <ele>389.303</ele>
        <time>2017-06-04T16:14:25.460Z</time>
      </trkpt>
      <trkpt lat="47.94029" lon="0.13199">
        <ele>385.847</ele>
        <time>2017-06-04T16:14:28.428Z</time>
      </trkpt>
      <trkpt lat="47.94036" lon="0.13407">
        <ele>383.888</ele>
        <time>2017-06-04T16:14:31.403Z</time>
      </trkpt>
      <trkpt lat="47.94042" lon="0.13547">
        <ele>384.693</ele>
        <time>2017-06-04T16:14:33.368Z</time>
      </trkpt>
      <trkpt lat="47.94057" lon="0.13761">
        <ele>385.964</ele>
        <time>2017-06-04T16:14:36.365Z</time>
      </trkpt>
      <trkpt lat="47.94065" lon="0.13905">
        <ele>384.815</ele>
        <time>2017-06-04T16:14:38.344Z</time>
      </trkpt>
      <trkpt lat="47.94073" lon="0.14126">
        <ele>381.007</ele>
        <time>2017-06-04T16:14:41.351Z</time>
      </trkpt>
      <trkpt lat="47.94075" lon="0.14272">
        <ele>375.351</ele>
        <time>2017-06-04T16:14:43.354Z</time>
      </trkpt>
      <trkpt lat="47.94083" lon="0.14489">
        <ele>368.899</ele>
        <time>2017-06-04T16:14:46.349Z</time>
      </trkpt>
      <trkpt lat="47.94093" lon="0.1463">
        <ele>363.826</ele>
        <time>2017-06-04T16:14:48.337Z</time>
      </trkpt>
      <trkpt lat="47.94106" lon="0.14768">
        <ele>362.193</ele>
        <time>2017-06-04T16:14:50.331Z</time>
      </trkpt>
      <trkpt lat="47.94136" lon="0.14972">
        <ele>363.842</ele>
        <time>2017-06-04T16:14:53.345Z</time>
      </trkpt>
      <trkpt lat="47.94165" lon="0.151">
        <ele>366.956</ele>
        <time>2017-06-04T16:14:55.353Z</time>
      </trkpt>
      <trkpt lat="47.94201" lon="0.15221">
        <ele>369.795</ele>
        <time>2017-06-04T16:14:57.343Z</time>
      </trkpt>
      <trkpt lat="47.94272" lon="0.15388">
        <ele>371.885</ele>
        <time>2017-06-04T16:15:00.348Z</time>
      </trkpt>
      <trkpt lat="47.94324" lon="0.15492">
        <ele>373.228</ele>
        <time>2017-06-04T16:15:02.359Z</time>
      </trkpt>
      <trkpt lat="47.94404" lon="0.15646">
        <ele>373.84</ele>
        <time>2017-06-04T16:15:05.386Z</time>
      </trkpt>
      <trkpt lat="47.94478" lon="0.158">
        <ele>374</ele>
        <time>2017-06-04T16:15:08.389Z</time>
      </trkpt>
      <trkpt lat="47.94551" lon="0.15946">
        <ele>374.543</ele>
        <time>2017-06-04T16:15:11.341Z</time>
      </trkpt>
      <trkpt lat="47.94601" lon="0.16041">
        <ele>376.293</ele>
        <time>2017-06-04T16:15:13.322Z</time>
      </trkpt>
      <trkpt lat="47.94675" lon="0.16187">
        <ele>378.795</ele>
        <time>2017-06-04T16:15:16.320Z</time>
      </trkpt>
      <trkpt lat="47.94727" lon="0.16283">
        <ele>380.618</ele>
        <time>2017-06-04T16:15:18.330Z</time>
      </trkpt>
      <trkpt lat="47.94809" lon="0.16417">
        <ele>380.954</ele>
        <time>2017-06-04T16:15:21.297Z</time>
      </trkpt>
      <trkpt lat="47.94867" lon="0.16501">
        <ele>380.171</ele>
        <time>2017-06-04T16:15:23.251Z</time>
      </trkpt>
      <trkpt lat="47.94955" lon="0.16632">
        <ele>379.204</ele>
        <time>2017-06-04T16:15:26.245Z</time>
      </trkpt>
      <trkpt lat="47.95038" lon="0.16769">
        <ele>378.951</ele>
        <time>2017-06-04T16:15:29.235Z</time>
      </trkpt>
      <trkpt lat="47.9509" lon="0.16866">
        <ele>379.593</ele>
        <time>2017-06-04T16:15:31.236Z</time>
      </trkpt>
      <trkpt lat="47.9514" lon="0.16961">
        <ele>380.785</ele>
        <time>2017-06-04T16:15:33.222Z</time>
      </trkpt>
      <trkpt lat="47.95218" lon="0.17102">
        <ele>382.357</ele>
        <time>2017-06-04T16:15:36.225Z</time>
      </trkpt>
      <trkpt lat="47.9527" lon="0.17195">
        <ele>384.429</ele>
        <time>2017-06-04T16:15:38.245Z</time>
      </trkpt>
      <trkpt lat="47.95351" lon="0.17327">
        <ele>386.712</ele>
        <time>2017-06-04T16:15:41.231Z</time>
      </trkpt>
      <trkpt lat="47.95437" lon="0.17456">
        <ele>388.687</ele>
        <time>2017-06-04T16:15:44.234Z</time>
      </trkpt>
      <trkpt lat="47.95527" lon="0.17585">
        <ele>390.024</ele>
        <time>2017-06-04T16:15:47.241Z</time>
      </trkpt>
      <trkpt lat="47.9562" lon="0.17712">
        <ele>390.595</ele>
        <time>2017-06-04T16:15:50.239Z</time>
      </trkpt>
      <trkpt lat="47.95714" lon="0.17831">
        <ele>390.521</ele>
        <time>2017-06-04T16:15:53.227Z</time>
      </trkpt>
      <trkpt lat="47.9581" lon="0.17944">
        <ele>390.51</ele>
        <time>2017-06-04T16:15:56.226Z</time>
      </trkpt>
      <trkpt lat="47.959" lon="0.18061">
        <ele>391.028</ele>
        <time>2017-06-04T16:15:59.221Z</time>
      </trkpt>
      <trkpt lat="47.95957" lon="0.18138">
        <ele>391.023</ele>
        <time>2017-06-04T16:16:01.198Z</time>
      </trkpt>
      <trkpt lat="47.96039" lon="0.18261">
        <ele>388.64</ele>
        <time>2017-06-04T16:16:04.191Z</time>
      </trkpt>
      <trkpt lat="47.96118" lon="0.18383">
        <ele>382.898</ele>
        <time>2017-06-04T16:16:07.187Z</time>
      </trkpt>
      <trkpt lat="47.96194" lon="0.18506">
        <ele>374.486</ele>
        <time>2017-06-04T16:16:10.169Z</time>
      </trkpt>
      <trkpt lat="47.96245" lon="0.18591">
        <ele>364.703</ele>
        <time>2017-06-04T16:16:12.179Z</time>
      </trkpt>
      <trkpt lat="47.96294" lon="0.18678">
        <ele>354.706</ele>
        <time>2017-06-04T16:16:14.148Z</time>
      </trkpt>
      <trkpt lat="47.9634" lon="0.18772">
        <ele>345.555</ele>
        <time>2017-06-04T16:16:16.134Z</time>
      </trkpt>
      <trkpt lat="47.96398" lon="0.18934">
        <ele>337.161</ele>
        <time>2017-06-04T16:16:19.169Z</time>
      </trkpt>
      <trkpt lat="47.96427" lon="0.19048">
        <ele>328.179</ele>
        <time>2017-06-04T16:16:21.173Z</time>
      </trkpt>
      <trkpt lat="47.96457" lon="0.19218">
        <ele>318.935</ele>
        <time>2017-06-04T16:16:24.120Z</time>
      </trkpt>
      <trkpt lat="47.96474" lon="0.19392">
        <ele>311.351</ele>
        <time>2017-06-04T16:16:27.089Z</time>
      </trkpt>
      <trkpt lat="47.96478" lon="0.19572">
        <ele>306.102</ele>
        <time>2017-06-04T16:16:30.078Z</time>
      </trkpt>
      <trkpt lat="47.96475" lon="0.19696">
        <ele>300.604</ele>
        <time>2017-06-04T16:16:32.066Z</time>
      </trkpt>
      <trkpt lat="47.96457" lon="0.19886">
        <ele>291.537</ele>
        <time>2017-06-04T16:16:35.073Z</time>
      </trkpt>
      <trkpt lat="47.96437" lon="0.20011">
        <ele>278.122</ele>
        <time>2017-06-04T16:16:37.059Z</time>
      </trkpt>
      <trkpt lat="47.96393" lon="0.20194">
        <ele>262.642</ele>
        <time>2017-06-04T16:16:40.072Z</time>
      </trkpt>
      <trkpt lat="47.9633" lon="0.20357">
        <ele>247.982</ele>
        <time>2017-06-04T16:16:43.061Z</time>
      </trkpt>
      <trkpt lat="47.96277" lon="0.20452">
        <ele>235.801</ele>
        <time>2017-06-04T16:16:45.084Z</time>
      </trkpt>
      <trkpt lat="47.96182" lon="0.20562">
        <ele>226.638</ele>
        <time>2017-06-04T16:16:48.094Z</time>
      </trkpt>
      <trkpt lat="47.9608" lon="0.20641">
        <ele>219.635</ele>
        <time>2017-06-04T16:16:51.060Z</time>
      </trkpt>
      <trkpt lat="47.96007" lon="0.20673">
        <ele>211.528</ele>
        <time>2017-06-04T16:16:53.088Z</time>
      </trkpt>
      <trkpt lat="47.95932" lon="0.20684">
        <ele>200.444</ele>
        <time>2017-06-04T16:16:55.101Z</time>
      </trkpt>
      <trkpt lat="47.9586" lon="0.20678">
        <ele>188.071</ele>
        <time>2017-06-04T16:16:57.109Z</time>
      </trkpt>
      <trkpt lat="47.95758" lon="0.20651">
        <ele>176.741</ele>
        <time>2017-06-04T16:17:00.104Z</time>
      </trkpt>
      <trkpt lat="47.95662" lon="0.20613">
        <ele>167.249</ele>
        <time>2017-06-04T16:17:03.055Z</time>
      </trkpt>
      <trkpt lat="47.95598" lon="0.20585">
        <ele>158.519</ele>
        <time>2017-06-04T16:17:05.059Z</time>
      </trkpt>
      <trkpt lat="47.95504" lon="0.20535">
        <ele>148.921</ele>
        <time>2017-06-04T16:17:08.032Z</time>
      </trkpt>
      <trkpt lat="47.95442" lon="0.205">
        <ele>137.713</ele>
        <time>2017-06-04T16:17:10.045Z</time>
      </trkpt>
      <trkpt lat="47.9535" lon="0.20446">
        <ele>125.145</ele>
        <time>2017-06-04T16:17:13.019Z</time>
      </trkpt>
      <trkpt lat="47.95258" lon="0.20393">
        <ele>112.215</ele>
        <time>2017-06-04T16:17:16.026Z</time>
      </trkpt>
      <trkpt lat="47.95168" lon="0.20343">
        <ele>100.05</ele>
        <time>2017-06-04T16:17:19.034Z</time>
      </trkpt>
      <trkpt lat="47.95081" lon="0.20296">
        <ele>88.491</ele>
        <time>2017-06-04T16:17:22.028Z</time>
      </trkpt>
      <trkpt lat="47.94998" lon="0.20251">
        <ele>76.805</ele>
        <time>2017-06-04T16:17:25.044Z</time>
      </trkpt>
      <trkpt lat="47.94923" lon="0.20209">
        <ele>65.465</ele>
        <time>2017-06-04T16:17:28.023Z</time>
      </trkpt>
      <trkpt lat="47.94855" lon="0.20172">
        <ele>56.164</ele>
        <time>2017-06-04T16:17:30.961Z</time>
      </trkpt>
      <trkpt lat="47.94793" lon="0.20135">
        <ele>50.09</ele>
        <time>2017-06-04T16:17:33.890Z</time>
      </trkpt>
      <trkpt lat="47.9473" lon="0.20102">
        <ele>47.277</ele>
        <time>2017-06-04T16:17:37.028Z</time>
      </trkpt>
      <trkpt lat="47.94693" lon="0.20081">
        <ele>46.704</ele>
        <time>2017-06-04T16:17:39.031Z</time>
      </trkpt>
      <trkpt lat="47.94658" lon="0.20061">
        <ele>47</ele>
        <time>2017-06-04T16:17:41.082Z</time>
      </trkpt>
      <trkpt lat="47.94628" lon="0.20045">
        <ele>47.304</ele>
        <time>2017-06-04T16:17:43.058Z</time>
      </trkpt>
      <trkpt lat="47.94601" lon="0.2003">
        <ele>47.374</ele>
        <time>2017-06-04T16:17:45.141Z</time>
      </trkpt>
      <trkpt lat="47.94568" lon="0.20014">
        <ele>47.282</ele>
        <time>2017-06-04T16:17:48.112Z</time>
      </trkpt>
      <trkpt lat="47.94548" lon="0.20002">
        <ele>47.141</ele>
        <time>2017-06-04T16:17:50.703Z</time>
      </trkpt>
      <trkpt lat="47.94536" lon="0.19996">
        <ele>47.023</ele>
        <time>2017-06-04T16:17:52.541Z</time>
      </trkpt>
      <trkpt lat="47.94521" lon="0.19986">
        <ele>46.953</ele>
        <time>2017-06-04T16:17:55.345Z</time>
      </trkpt>
      <trkpt lat="47.94511" lon="0.19979">
        <ele>47.119</ele>
        <time>2017-06-04T16:17:57.370Z</time>
      </trkpt>
      <trkpt lat="47.94503" lon="0.1996">
        <ele>47.878</ele>
        <time>2017-06-04T16:18:00.181Z</time>
      </trkpt>
      <trkpt lat="47.94502" lon="0.19944">
        <ele>49.097</ele>
        <time>2017-06-04T16:18:02.374Z</time>
      </trkpt>
      <trkpt lat="47.94505" lon="0.19922">
        <ele>50.21</ele>
        <time>2017-06-04T16:18:05.400Z</time>
      </trkpt>
      <trkpt lat="47.94508" lon="0.19907">
        <ele>50.956</ele>
        <time>2017-06-04T16:18:07.343Z</time>
      </trkpt>
      <trkpt lat="47.94511" lon="0.19891">
        <ele>51.474</ele>
        <time>2017-06-04T16:18:09.557Z</time>
      </trkpt>
      <trkpt lat="47.94515" lon="0.19868">
        <ele>51.97</ele>
        <time>2017-06-04T16:18:12.599Z</time>
      </trkpt>
      <trkpt lat="47.94518" lon="0.19853">
        <ele>52.46</ele>
        <time>2017-06-04T16:18:14.577Z</time>
      </trkpt>
      <trkpt lat="47.9452" lon="0.19838">
        <ele>52.771</ele>
        <time>2017-06-04T16:18:16.651Z</time>
      </trkpt>
      <trkpt lat="47.94525" lon="0.19817">
        <ele>52.853</ele>
        <time>2017-06-04T16:18:19.762Z</time>
      </trkpt>
      <trkpt lat="47.9453" lon="0.19797">
        <ele>52.713</ele>
        <time>2017-06-04T16:18:22.599Z</time>
      </trkpt>
      <trkpt lat="47.94534" lon="0.19783">
        <ele>52.366</ele>
        <time>2017-06-04T16:18:24.806Z</time>
      </trkpt>
      <trkpt lat="47.94538" lon="0.19769">
        <ele>51.979</ele>
        <time>2017-06-04T16:18:26.858Z</time>
      </trkpt>
      <trkpt lat="47.94542" lon="0.19749">
        <ele>51.773</ele>
        <time>2017-06-04T16:18:29.840Z</time>
      </trkpt>
      <trkpt lat="47.94546" lon="0.19726">
        <ele>51.785</ele>
        <time>2017-06-04T16:18:33.057Z</time>
      </trkpt>
      <trkpt lat="47.94552" lon="0.19708">
        <ele>51.654</ele>
        <time>2017-06-04T16:18:35.964Z</time>
      </trkpt>
      <trkpt lat="47.94555" lon="0.19689">
        <ele>51.052</ele>
        <time>2017-06-04T16:18:38.943Z</time>
      </trkpt>
      <trkpt lat="47.94561" lon="0.19676">
        <ele>50.191</ele>
        <time>2017-06-04T16:18:41.691Z</time>
      </trkpt>
      <trkpt lat="47.94562" lon="0.1966">
        <ele>49.348</ele>
        <time>2017-06-04T16:18:45.001Z</time>
      </trkpt>
      <trkpt lat="47.94562" lon="0.1966">
        <ele>48.603</ele>
        <time>2017-06-04T16:18:51.001Z</time>
      </trkpt>
      <trkpt lat="47.94559" lon="0.19654">
        <ele>48.254</ele>
        <time>2017-06-04T16:19:44.396Z</time>
      </trkpt>
    </trkseg>
  </trk>
</gpx>